createdAt,value
2016-10-03T00:00:20.776Z,0
2016-10-03T00:01:21.092Z,0
2016-10-03T00:02:21.109Z,0
2016-10-03T00:03:20.497Z,0
2016-10-03T00:04:21.456Z,0
2016-10-03T00:05:21.492Z,0
2016-10-03T00:06:20.951Z,0
2016-10-03T00:07:21.563Z,0
2016-10-03T00:08:21.541Z,0
2016-10-03T00:09:21.257Z,0
2016-10-03T00:10:20.735Z,0
2016-10-03T00:11:21.285Z,0
2016-10-03T00:12:21.361Z,0
2016-10-03T00:13:21.333Z,0
2016-10-03T00:14:21.060Z,0
2016-10-03T00:15:21.379Z,0
2016-10-03T00:16:22.027Z,0
2016-10-03T00:17:21.110Z,0
2016-10-03T00:18:21.763Z,0
2016-10-03T00:19:21.152Z,0
2016-10-03T00:20:21.471Z,0
2016-10-03T00:21:21.491Z,0
2016-10-03T00:22:21.872Z,0
2016-10-03T00:23:21.228Z,0
2016-10-03T00:24:21.839Z,0
2016-10-03T00:25:21.908Z,0
2016-10-03T00:26:21.279Z,0
2016-10-03T00:27:21.378Z,0
2016-10-03T00:28:22.230Z,0
2016-10-03T00:29:21.668Z,0
2016-10-03T00:30:22.009Z,0
2016-10-03T00:31:22.295Z,0
2016-10-03T00:35:22.084Z,0
2016-10-03T00:36:22.087Z,0
2016-10-03T00:37:21.800Z,0
2016-10-03T00:38:21.815Z,0
2016-10-03T00:39:21.931Z,0
2016-10-03T00:40:21.862Z,0
2016-10-03T00:41:22.288Z,0
2016-10-03T00:42:21.896Z,0
2016-10-03T00:43:21.956Z,0
2016-10-03T00:44:22.528Z,0
2016-10-03T00:45:22.051Z,0
2016-10-03T00:46:22.297Z,0
2016-10-03T00:47:22.020Z,0
2016-10-03T00:48:21.677Z,0
2016-10-03T00:49:22.030Z,0
2016-10-03T00:50:22.029Z,0
2016-10-03T00:51:22.070Z,0
2016-10-03T00:52:22.700Z,0
2016-10-03T00:53:22.730Z,0
2016-10-03T00:54:22.247Z,0
2016-10-03T00:55:22.480Z,0
2016-10-03T00:56:22.772Z,0
2016-10-03T00:57:22.179Z,0
2016-10-03T00:58:22.191Z,0
2016-10-03T00:59:21.896Z,0
2016-10-03T01:00:22.260Z,0
2016-10-03T01:01:22.244Z,0
2016-10-03T01:02:22.261Z,0
2016-10-03T01:03:22.289Z,0
2016-10-03T01:04:22.300Z,0
2016-10-03T01:05:22.487Z,0
2016-10-03T01:06:22.643Z,0
2016-10-03T01:07:22.978Z,0
2016-10-03T01:08:22.710Z,0
2016-10-03T01:09:23.015Z,0
2016-10-03T01:10:22.781Z,0
2016-10-03T01:11:22.761Z,0
2016-10-03T01:12:22.821Z,0
2016-10-03T01:13:22.835Z,0
2016-10-03T01:14:22.168Z,0
2016-10-03T01:15:22.840Z,0
2016-10-03T01:16:22.559Z,0
2016-10-03T01:17:22.861Z,0
2016-10-03T01:18:22.938Z,0
2016-10-03T01:19:22.888Z,0
2016-10-03T01:20:23.002Z,0
2016-10-03T01:21:22.360Z,0
2016-10-03T01:22:22.952Z,0
2016-10-03T01:23:22.348Z,0
2016-10-03T01:24:22.996Z,0
2016-10-03T01:25:22.754Z,0
2016-10-03T01:26:22.767Z,0
2016-10-03T01:27:23.171Z,0
2016-10-03T01:28:23.396Z,0
2016-10-03T01:29:23.090Z,0
2016-10-03T01:30:23.157Z,0
2016-10-03T01:31:23.188Z,0
2016-10-03T01:32:22.873Z,0
2016-10-03T01:33:22.852Z,0
2016-10-03T01:34:22.887Z,0
2016-10-03T01:35:23.514Z,0
2016-10-03T01:36:22.974Z,0
2016-10-03T01:37:22.967Z,0
2016-10-03T01:38:23.554Z,0
2016-10-03T01:39:23.378Z,0
2016-10-03T01:40:23.585Z,0
2016-10-03T01:41:23.019Z,0
2016-10-03T01:42:23.687Z,0
2016-10-03T01:43:23.087Z,0
2016-10-03T01:44:23.336Z,0
2016-10-03T01:45:22.810Z,0
2016-10-03T01:46:23.399Z,0
2016-10-03T01:47:23.740Z,0
2016-10-03T01:48:23.737Z,0
2016-10-03T01:49:23.760Z,0
2016-10-03T01:50:22.867Z,0
2016-10-03T01:51:23.466Z,0
2016-10-03T01:52:23.947Z,0
2016-10-03T01:53:23.860Z,0
2016-10-03T01:54:22.691Z,0
2016-10-03T01:55:23.566Z,0
2016-10-03T01:56:23.585Z,0
2016-10-03T01:57:23.317Z,0
2016-10-03T01:58:23.928Z,0
2016-10-03T01:59:23.338Z,0
2016-10-03T02:00:23.641Z,0
2016-10-03T02:01:23.977Z,0
2016-10-03T02:02:23.374Z,0
2016-10-03T02:03:24.026Z,0
2016-10-03T02:04:23.431Z,0
2016-10-03T02:05:23.839Z,0
2016-10-03T02:06:24.139Z,0
2016-10-03T02:07:23.899Z,0
2016-10-03T02:08:23.501Z,0
2016-10-03T02:09:23.523Z,0
2016-10-03T02:10:23.589Z,0
2016-10-03T02:11:23.864Z,0
2016-10-03T02:12:23.581Z,0
2016-10-03T02:13:23.988Z,0
2016-10-03T02:14:23.923Z,0
2016-10-03T02:15:24.237Z,0
2016-10-03T02:16:23.641Z,0
2016-10-03T02:17:23.041Z,0
2016-10-03T02:18:23.721Z,0
2016-10-03T02:19:23.699Z,0
2016-10-03T02:20:24.493Z,0
2016-10-03T02:21:23.771Z,0
2016-10-03T02:22:23.446Z,0
2016-10-03T02:23:23.803Z,0
2016-10-03T02:24:24.107Z,0
2016-10-03T02:25:24.130Z,0
2016-10-03T02:26:23.832Z,0
2016-10-03T02:27:24.481Z,0
2016-10-03T02:28:24.247Z,0
2016-10-03T02:29:24.220Z,0
2016-10-03T02:30:24.297Z,0
2016-10-03T02:31:24.259Z,0
2016-10-03T02:32:24.257Z,0
2016-10-03T02:33:23.970Z,0
2016-10-03T02:34:23.980Z,0
2016-10-03T02:35:24.007Z,0
2016-10-03T02:36:24.028Z,0
2016-10-03T02:37:24.043Z,0
2016-10-03T02:38:23.444Z,0
2016-10-03T02:39:24.484Z,0
2016-10-03T02:40:23.788Z,0
2016-10-03T02:41:24.118Z,0
2016-10-03T02:42:24.148Z,0
2016-10-03T02:43:24.546Z,0
2016-10-03T02:44:24.490Z,0
2016-10-03T02:45:24.183Z,0
2016-10-03T02:46:24.276Z,0
2016-10-03T02:47:24.543Z,0
2016-10-03T02:48:24.253Z,0
2016-10-03T02:49:24.587Z,0
2016-10-03T02:50:24.294Z,0
2016-10-03T02:51:24.408Z,0
2016-10-03T02:52:24.396Z,0
2016-10-03T02:53:24.767Z,0
2016-10-03T02:54:24.983Z,0
2016-10-03T02:55:24.708Z,0
2016-10-03T02:56:24.823Z,0
2016-10-03T02:57:24.415Z,0
2016-10-03T02:58:25.107Z,0
2016-10-03T02:59:24.557Z,0
2016-10-03T03:00:24.689Z,0
2016-10-03T03:01:25.107Z,0
2016-10-03T03:02:25.009Z,0
2016-10-03T03:03:24.848Z,0
2016-10-03T03:04:24.949Z,0
2016-10-03T03:05:24.897Z,0
2016-10-03T03:06:24.281Z,0
2016-10-03T03:07:24.905Z,0
2016-10-03T03:08:24.636Z,0
2016-10-03T03:09:24.980Z,0
2016-10-03T03:10:24.666Z,0
2016-10-03T03:11:24.387Z,0
2016-10-03T03:12:25.383Z,0
2016-10-03T03:13:25.154Z,0
2016-10-03T03:14:25.070Z,0
2016-10-03T03:15:24.785Z,0
2016-10-03T03:16:25.415Z,0
2016-10-03T03:17:25.660Z,0
2016-10-03T03:18:25.456Z,0
2016-10-03T03:19:25.455Z,0
2016-10-03T03:20:24.895Z,0
2016-10-03T03:21:25.196Z,0
2016-10-03T03:22:25.224Z,0
2016-10-03T03:23:25.305Z,0
2016-10-03T03:24:24.336Z,0
2016-10-03T03:25:25.629Z,0
2016-10-03T03:26:25.293Z,0
2016-10-03T03:27:24.750Z,0
2016-10-03T03:28:25.528Z,0
2016-10-03T03:29:25.354Z,0
2016-10-03T03:30:25.064Z,0
2016-10-03T03:31:25.394Z,0
2016-10-03T03:32:24.887Z,0
2016-10-03T03:33:24.824Z,0
2016-10-03T03:34:25.465Z,0
2016-10-03T03:35:25.465Z,0
2016-10-03T03:36:25.582Z,0
2016-10-03T03:37:25.047Z,0
2016-10-03T03:38:25.613Z,0
2016-10-03T03:39:24.913Z,0
2016-10-03T03:40:25.006Z,0
2016-10-03T03:41:25.711Z,0
2016-10-03T03:42:25.302Z,0
2016-10-03T03:43:25.627Z,0
2016-10-03T03:44:25.014Z,0
2016-10-03T03:45:25.966Z,0
2016-10-03T03:46:25.375Z,0
2016-10-03T03:47:25.495Z,0
2016-10-03T03:48:25.083Z,0
2016-10-03T03:49:25.504Z,0
2016-10-03T03:50:25.433Z,0
2016-10-03T03:51:25.794Z,0
2016-10-03T03:52:25.483Z,0
2016-10-03T03:53:25.804Z,0
2016-10-03T03:54:24.913Z,0
2016-10-03T03:55:25.244Z,0
2016-10-03T03:56:25.894Z,0
2016-10-03T03:57:25.913Z,0
2016-10-03T03:58:26.198Z,0
2016-10-03T03:59:25.618Z,0
2016-10-03T04:00:25.465Z,0
2016-10-03T04:01:26.321Z,0
2016-10-03T04:02:25.414Z,0
2016-10-03T04:03:26.343Z,0
2016-10-03T04:04:25.468Z,0
2016-10-03T04:05:26.045Z,0
2016-10-03T04:06:25.449Z,0
2016-10-03T04:07:26.089Z,0
2016-10-03T04:08:25.467Z,0
2016-10-03T04:09:25.815Z,0
2016-10-03T04:10:25.824Z,0
2016-10-03T04:11:25.850Z,0
2016-10-03T04:12:25.546Z,0
2016-10-03T04:13:25.876Z,0
2016-10-03T04:14:25.902Z,0
2016-10-03T04:15:25.914Z,0
2016-10-03T04:16:25.634Z,0
2016-10-03T04:17:25.977Z,0
2016-10-03T04:18:26.435Z,0
2016-10-03T04:19:25.995Z,0
2016-10-03T04:20:25.708Z,0
2016-10-03T04:21:26.047Z,0
2016-10-03T04:22:26.374Z,0
2016-10-03T04:23:26.400Z,0
2016-10-03T04:24:26.514Z,0
2016-10-03T04:25:26.113Z,0
2016-10-03T04:26:25.826Z,0
2016-10-03T04:27:26.173Z,0
2016-10-03T04:28:26.486Z,0
2016-10-03T04:29:26.812Z,0
2016-10-03T04:30:26.215Z,0
2016-10-03T04:31:26.247Z,0
2016-10-03T04:32:26.256Z,0
2016-10-03T04:33:26.566Z,0
2016-10-03T04:34:26.668Z,0
2016-10-03T04:35:26.322Z,0
2016-10-03T04:36:25.726Z,0
2016-10-03T04:37:26.387Z,0
2016-10-03T04:38:25.747Z,0
2016-10-03T04:39:26.717Z,0
2016-10-03T04:40:25.806Z,0
2016-10-03T04:41:26.748Z,0
2016-10-03T04:42:26.436Z,0
2016-10-03T04:43:26.766Z,0
2016-10-03T04:44:26.805Z,0
2016-10-03T04:45:26.829Z,0
2016-10-03T04:46:26.565Z,0
2016-10-03T04:47:27.162Z,0
2016-10-03T04:48:26.568Z,0
2016-10-03T04:49:26.883Z,0
2016-10-03T04:50:26.295Z,0
2016-10-03T04:51:26.321Z,0
2016-10-03T04:52:27.008Z,0
2016-10-03T04:53:26.957Z,0
2016-10-03T04:54:26.360Z,0
2016-10-03T04:55:27.016Z,0
2016-10-03T04:56:26.715Z,0
2016-10-03T04:57:27.028Z,0
2016-10-03T04:58:26.852Z,0
2016-10-03T04:59:26.800Z,0
2016-10-03T05:00:27.203Z,0
2016-10-03T05:01:26.883Z,0
2016-10-03T05:02:26.576Z,0
2016-10-03T05:03:26.849Z,0
2016-10-03T05:04:27.537Z,0
2016-10-03T05:05:26.841Z,0
2016-10-03T05:06:27.629Z,0
2016-10-03T05:07:27.856Z,0
2016-10-03T05:08:27.897Z,0
2016-10-03T05:09:27.158Z,0
2016-10-03T05:10:27.550Z,0
2016-10-03T05:11:27.296Z,0
2016-10-03T05:12:27.345Z,0
2016-10-03T05:13:27.530Z,0
2016-10-03T05:14:27.882Z,0
2016-10-03T05:15:27.539Z,0
2016-10-03T05:16:26.912Z,0
2016-10-03T05:17:27.440Z,0
2016-10-03T05:18:27.521Z,0
2016-10-03T05:19:27.460Z,0
2016-10-03T05:20:27.849Z,0
2016-10-03T05:21:27.190Z,0
2016-10-03T05:22:26.889Z,0
2016-10-03T05:23:27.496Z,0
2016-10-03T05:24:26.949Z,0
2016-10-03T05:25:28.040Z,0
2016-10-03T05:26:27.302Z,0
2016-10-03T05:27:27.979Z,5
2016-10-03T05:28:27.637Z,5
2016-10-03T05:29:27.357Z,5
2016-10-03T05:30:27.682Z,5
2016-10-03T05:31:27.142Z,5
2016-10-03T05:32:28.017Z,5
2016-10-03T05:33:27.778Z,5
2016-10-03T05:34:27.110Z,10
2016-10-03T05:35:27.555Z,10
2016-10-03T05:36:27.773Z,10
2016-10-03T05:37:26.981Z,10
2016-10-03T05:38:27.512Z,10
2016-10-03T05:39:27.647Z,10
2016-10-03T05:40:27.552Z,10
2016-10-03T05:41:27.554Z,10
2016-10-03T05:42:27.535Z,15
2016-10-03T05:43:27.363Z,15
2016-10-03T05:44:28.343Z,15
2016-10-03T05:45:27.951Z,15
2016-10-03T05:46:27.528Z,15
2016-10-03T05:47:28.007Z,15
2016-10-03T05:48:27.498Z,15
2016-10-03T05:49:27.433Z,15
2016-10-03T05:50:27.803Z,15
2016-10-03T05:51:27.774Z,15
2016-10-03T05:52:27.474Z,20
2016-10-03T05:53:28.117Z,20
2016-10-03T05:54:28.202Z,20
2016-10-03T05:55:28.404Z,25
2016-10-03T05:56:27.600Z,20
2016-10-03T05:57:28.215Z,25
2016-10-03T05:58:28.214Z,25
2016-10-03T05:59:28.615Z,30
2016-10-03T06:00:28.238Z,30
2016-10-03T06:01:28.267Z,30
2016-10-03T06:02:27.361Z,30
2016-10-03T06:03:28.314Z,30
2016-10-03T06:04:28.059Z,30
2016-10-03T06:05:28.045Z,35
2016-10-03T06:06:28.068Z,35
2016-10-03T06:07:28.439Z,35
2016-10-03T06:08:28.103Z,40
2016-10-03T06:09:28.432Z,40
2016-10-03T06:10:27.903Z,40
2016-10-03T06:11:28.464Z,40
2016-10-03T06:12:28.254Z,40
2016-10-03T06:13:27.855Z,50
2016-10-03T06:14:28.260Z,55
2016-10-03T06:15:28.233Z,55
2016-10-03T06:16:28.240Z,60
2016-10-03T06:17:28.672Z,60
2016-10-03T06:18:27.669Z,60
2016-10-03T06:19:27.982Z,65
2016-10-03T06:20:28.324Z,65
2016-10-03T06:21:28.397Z,70
2016-10-03T06:22:27.745Z,70
2016-10-03T06:23:54.037Z,80
2016-10-03T06:24:29.245Z,90
2016-10-03T06:25:28.734Z,95
2016-10-03T06:26:28.459Z,100
2016-10-03T06:27:28.778Z,110
2016-10-03T06:28:28.804Z,110
2016-10-03T06:29:28.545Z,115
2016-10-03T06:30:28.840Z,110
2016-10-03T06:31:28.160Z,95
2016-10-03T06:32:29.358Z,85
2016-10-03T06:33:28.363Z,85
2016-10-03T06:34:28.681Z,90
2016-10-03T06:35:28.673Z,100
2016-10-03T06:36:28.639Z,120
2016-10-03T06:37:28.966Z,120
2016-10-03T06:38:28.676Z,130
2016-10-03T06:39:29.024Z,135
2016-10-03T06:40:28.807Z,140
2016-10-03T06:41:28.733Z,155
2016-10-03T06:42:29.513Z,165
2016-10-03T06:43:29.082Z,165
2016-10-03T06:44:28.858Z,180
2016-10-03T06:45:29.473Z,185
2016-10-03T06:46:29.433Z,185
2016-10-03T06:47:28.532Z,185
2016-10-03T06:48:28.954Z,180
2016-10-03T06:49:29.248Z,170
2016-10-03T06:50:28.393Z,165
2016-10-03T06:51:29.024Z,165
2016-10-03T06:52:29.240Z,190
2016-10-03T06:53:28.652Z,170
2016-10-03T06:54:29.311Z,170
2016-10-03T06:55:29.390Z,165
2016-10-03T06:56:28.509Z,175
2016-10-03T06:57:28.860Z,185
2016-10-03T06:58:29.081Z,205
2016-10-03T06:59:29.139Z,210
2016-10-03T07:00:29.193Z,220
2016-10-03T07:01:29.127Z,235
2016-10-03T07:02:28.826Z,250
2016-10-03T07:03:29.901Z,270
2016-10-03T07:04:28.939Z,265
2016-10-03T07:05:29.248Z,275
2016-10-03T07:06:29.219Z,285
2016-10-03T07:07:29.221Z,300
2016-10-03T07:08:29.686Z,295
2016-10-03T07:09:29.608Z,295
2016-10-03T07:10:29.012Z,280
2016-10-03T07:11:29.351Z,280
2016-10-03T07:12:29.369Z,265
2016-10-03T07:13:29.146Z,235
2016-10-03T07:14:29.533Z,225
2016-10-03T07:15:29.508Z,240
2016-10-03T07:16:29.738Z,220
2016-10-03T07:17:29.153Z,225
2016-10-03T07:18:29.789Z,200
2016-10-03T07:19:28.868Z,230
2016-10-03T07:20:29.296Z,295
2016-10-03T07:21:29.455Z,310
2016-10-03T07:22:30.322Z,295
2016-10-03T07:23:29.597Z,325
2016-10-03T07:24:29.355Z,345
2016-10-03T07:25:30.439Z,360
2016-10-03T07:26:30.344Z,285
2016-10-03T07:27:29.052Z,250
2016-10-03T07:28:29.988Z,275
2016-10-03T07:29:30.018Z,270
2016-10-03T07:30:29.746Z,265
2016-10-03T07:31:29.904Z,245
2016-10-03T07:32:30.218Z,290
2016-10-03T07:33:29.803Z,260
2016-10-03T07:34:30.175Z,230
2016-10-03T07:35:30.568Z,240
2016-10-03T07:36:30.161Z,235
2016-10-03T07:37:30.183Z,240
2016-10-03T07:38:30.244Z,250
2016-10-03T07:39:30.557Z,255
2016-10-03T07:40:30.251Z,265
2016-10-03T07:41:29.948Z,300
2016-10-03T07:42:29.980Z,325
2016-10-03T07:43:30.011Z,390
2016-10-03T07:44:30.422Z,325
2016-10-03T07:45:30.369Z,265
2016-10-03T07:46:30.790Z,330
2016-10-03T07:47:30.463Z,275
2016-10-03T07:48:30.124Z,230
2016-10-03T07:49:29.839Z,220
2016-10-03T07:50:30.464Z,255
2016-10-03T07:51:30.159Z,295
2016-10-03T07:52:30.883Z,240
2016-10-03T07:53:30.238Z,215
2016-10-03T07:54:30.229Z,220
2016-10-03T07:55:30.330Z,215
2016-10-03T07:56:30.678Z,225
2016-10-03T07:57:29.685Z,240
2016-10-03T07:58:31.138Z,215
2016-10-03T07:59:30.645Z,235
2016-10-03T08:00:30.685Z,240
2016-10-03T08:01:30.684Z,245
2016-10-03T08:02:30.708Z,265
2016-10-03T08:03:31.048Z,295
2016-10-03T08:04:30.793Z,305
2016-10-03T08:05:30.806Z,275
2016-10-03T08:06:30.916Z,285
2016-10-03T08:07:30.656Z,315
2016-10-03T08:08:30.555Z,310
2016-10-03T08:09:30.566Z,310
2016-10-03T08:10:30.676Z,350
2016-10-03T08:11:30.525Z,295
2016-10-03T08:12:31.126Z,255
2016-10-03T08:13:31.204Z,265
2016-10-03T08:14:31.205Z,265
2016-10-03T08:15:31.245Z,285
2016-10-03T08:16:31.403Z,295
2016-10-03T08:17:30.868Z,285
2016-10-03T08:18:31.050Z,285
2016-10-03T08:19:31.289Z,325
2016-10-03T08:20:31.413Z,340
2016-10-03T08:21:30.953Z,365
2016-10-03T08:22:31.205Z,345
2016-10-03T08:23:30.904Z,320
2016-10-03T08:24:30.976Z,360
2016-10-03T08:25:30.632Z,305
2016-10-03T08:26:31.288Z,270
2016-10-03T08:27:31.051Z,270
2016-10-03T08:28:31.364Z,280
2016-10-03T08:29:30.676Z,310
2016-10-03T08:30:31.359Z,325
2016-10-03T08:31:31.420Z,330
2016-10-03T08:32:31.362Z,330
2016-10-03T08:34:31.126Z,290
2016-10-03T08:35:31.114Z,305
2016-10-03T08:36:31.241Z,310
2016-10-03T08:37:31.194Z,305
2016-10-03T08:38:30.706Z,295
2016-10-03T08:39:31.263Z,290
2016-10-03T08:40:31.851Z,300
2016-10-03T08:41:31.919Z,295
2016-10-03T08:42:31.837Z,290
2016-10-03T08:43:31.523Z,285
2016-10-03T08:44:31.357Z,285
2016-10-03T08:45:31.392Z,270
2016-10-03T08:46:31.955Z,260
2016-10-03T08:47:32.192Z,270
2016-10-03T08:48:31.540Z,260
2016-10-03T08:49:31.520Z,265
2016-10-03T08:50:31.237Z,260
2016-10-03T08:51:32.186Z,280
2016-10-03T08:52:31.963Z,295
2016-10-03T08:53:32.170Z,310
2016-10-03T08:54:32.173Z,335
2016-10-03T08:55:32.142Z,350
2016-10-03T08:56:31.950Z,370
2016-10-03T08:57:32.062Z,365
2016-10-03T08:58:32.049Z,360
2016-10-03T08:59:32.011Z,375
2016-10-03T09:00:31.721Z,380
2016-10-03T09:01:31.698Z,405
2016-10-03T09:02:32.394Z,440
2016-10-03T09:03:31.716Z,490
2016-10-03T09:04:32.441Z,560
2016-10-03T09:05:32.109Z,570
2016-10-03T09:06:32.115Z,565
2016-10-03T09:07:32.131Z,585
2016-10-03T09:08:32.743Z,455
2016-10-03T09:09:32.069Z,405
2016-10-03T09:10:32.581Z,360
2016-10-03T09:11:32.613Z,310
2016-10-03T09:12:32.292Z,335
2016-10-03T09:13:32.476Z,310
2016-10-03T09:14:32.839Z,260
2016-10-03T09:15:32.735Z,225
2016-10-03T09:16:32.227Z,225
2016-10-03T09:17:32.101Z,195
2016-10-03T09:18:32.415Z,170
2016-10-03T09:19:32.153Z,165
2016-10-03T09:20:32.335Z,185
2016-10-03T09:21:32.876Z,160
2016-10-03T09:22:32.486Z,130
2016-10-03T09:23:32.499Z,135
2016-10-03T09:24:32.876Z,140
2016-10-03T09:25:32.977Z,175
2016-10-03T09:26:32.256Z,220
2016-10-03T09:27:32.943Z,280
2016-10-03T09:28:32.651Z,350
2016-10-03T09:29:32.639Z,395
2016-10-03T09:30:32.764Z,430
2016-10-03T09:31:32.998Z,445
2016-10-03T09:32:32.411Z,430
2016-10-03T09:33:31.796Z,420
2016-10-03T09:34:32.445Z,415
2016-10-03T09:35:32.462Z,415
2016-10-03T09:36:32.819Z,405
2016-10-03T09:37:32.630Z,380
2016-10-03T09:38:33.158Z,345
2016-10-03T09:39:33.198Z,340
2016-10-03T09:40:33.211Z,345
2016-10-03T09:41:32.623Z,310
2016-10-03T09:42:32.623Z,275
2016-10-03T09:43:32.980Z,270
2016-10-03T09:44:32.450Z,280
2016-10-03T09:45:33.119Z,280
2016-10-03T09:46:32.763Z,275
2016-10-03T09:47:33.140Z,275
2016-10-03T09:48:33.074Z,270
2016-10-03T09:49:33.444Z,280
2016-10-03T09:50:33.112Z,295
2016-10-03T09:51:33.451Z,330
2016-10-03T09:52:33.464Z,355
2016-10-03T09:53:32.912Z,375
2016-10-03T09:54:32.672Z,395
2016-10-03T09:55:32.914Z,425
2016-10-03T09:56:33.274Z,445
2016-10-03T09:57:33.712Z,450
2016-10-03T09:58:33.698Z,435
2016-10-03T09:59:33.141Z,430
2016-10-03T10:00:33.197Z,405
2016-10-03T10:01:33.056Z,445
2016-10-03T10:02:32.783Z,410
2016-10-03T10:03:33.751Z,380
2016-10-03T10:04:33.803Z,370
2016-10-03T10:05:33.488Z,385
2016-10-03T10:06:33.598Z,410
2016-10-03T10:07:33.326Z,460
2016-10-03T10:08:33.208Z,480
2016-10-03T10:09:33.570Z,490
2016-10-03T10:10:33.697Z,520
2016-10-03T10:11:33.631Z,530
2016-10-03T10:12:33.972Z,505
2016-10-03T10:13:33.077Z,515
2016-10-03T10:14:33.704Z,535
2016-10-03T10:15:33.689Z,500
2016-10-03T10:16:33.720Z,465
2016-10-03T10:17:33.828Z,440
2016-10-03T10:18:33.819Z,460
2016-10-03T10:19:33.825Z,495
2016-10-03T10:20:33.854Z,505
2016-10-03T10:21:33.872Z,560
2016-10-03T10:22:33.709Z,485
2016-10-03T10:23:34.321Z,505
2016-10-03T10:24:33.611Z,490
2016-10-03T10:25:34.022Z,410
2016-10-03T10:26:34.004Z,325
2016-10-03T10:27:34.303Z,275
2016-10-03T10:28:34.052Z,290
2016-10-03T10:29:34.462Z,355
2016-10-03T10:30:34.123Z,420
2016-10-03T10:31:34.116Z,435
2016-10-03T10:32:34.530Z,415
2016-10-03T10:33:33.850Z,405
2016-10-03T10:34:34.338Z,435
2016-10-03T10:35:33.877Z,475
2016-10-03T10:36:33.593Z,445
2016-10-03T10:37:34.254Z,410
2016-10-03T10:38:34.518Z,370
2016-10-03T10:39:34.006Z,370
2016-10-03T10:40:34.503Z,390
2016-10-03T10:41:34.656Z,400
2016-10-03T10:42:34.054Z,400
2016-10-03T10:43:34.081Z,380
2016-10-03T10:44:34.110Z,385
2016-10-03T10:45:34.140Z,385
2016-10-03T10:46:34.681Z,395
2016-10-03T10:47:34.180Z,420
2016-10-03T10:48:34.722Z,440
2016-10-03T10:49:34.840Z,445
2016-10-03T10:50:34.550Z,425
2016-10-03T10:51:34.571Z,405
2016-10-03T10:52:33.668Z,385
2016-10-03T10:53:34.625Z,355
2016-10-03T10:54:34.339Z,335
2016-10-03T10:55:34.703Z,335
2016-10-03T10:56:34.425Z,345
2016-10-03T10:57:34.080Z,360
2016-10-03T10:58:34.749Z,400
2016-10-03T10:59:34.556Z,435
2016-10-03T11:00:34.510Z,425
2016-10-03T11:01:34.969Z,380
2016-10-03T11:02:35.312Z,360
2016-10-03T11:03:35.319Z,380
2016-10-03T11:04:34.590Z,410
2016-10-03T11:05:35.278Z,455
2016-10-03T11:06:35.757Z,460
2016-10-03T11:07:34.658Z,450
2016-10-03T11:08:34.671Z,455
2016-10-03T11:09:35.020Z,440
2016-10-03T11:10:34.732Z,410
2016-10-03T11:11:35.376Z,360
2016-10-03T11:12:35.279Z,315
2016-10-03T11:13:34.847Z,305
2016-10-03T11:14:35.502Z,305
2016-10-03T11:15:35.369Z,310
2016-10-03T11:16:35.181Z,325
2016-10-03T11:17:35.557Z,345
2016-10-03T11:18:35.445Z,370
2016-10-03T11:19:35.384Z,390
2016-10-03T11:20:35.624Z,375
2016-10-03T11:21:35.067Z,390
2016-10-03T11:22:35.624Z,420
2016-10-03T11:23:35.507Z,455
2016-10-03T11:24:35.437Z,445
2016-10-03T11:25:35.147Z,410
2016-10-03T11:26:35.414Z,380
2016-10-03T11:27:35.536Z,360
2016-10-03T11:28:35.981Z,350
2016-10-03T11:29:35.808Z,345
2016-10-03T11:30:35.728Z,325
2016-10-03T11:31:35.859Z,320
2016-10-03T11:32:35.265Z,365
2016-10-03T11:33:35.629Z,380
2016-10-03T11:34:36.217Z,335
2016-10-03T11:35:35.021Z,285
2016-10-03T11:36:35.975Z,275
2016-10-03T11:38:35.397Z,300
2016-10-03T11:39:35.827Z,335
2016-10-03T11:40:35.916Z,335
2016-10-03T11:41:36.048Z,330
2016-10-03T11:42:35.937Z,325
2016-10-03T11:43:35.532Z,350
2016-10-03T11:44:35.845Z,340
2016-10-03T11:45:36.196Z,325
2016-10-03T11:46:35.915Z,305
2016-10-03T11:47:36.439Z,295
2016-10-03T11:48:35.948Z,305
2016-10-03T11:49:36.106Z,305
2016-10-03T11:51:07.715Z,295
2016-10-03T11:51:35.504Z,300
2016-10-03T11:52:36.064Z,310
2016-10-03T11:53:36.085Z,325
2016-10-03T11:54:35.981Z,335
2016-10-03T11:55:35.805Z,345
2016-10-03T11:56:35.854Z,375
2016-10-03T11:57:36.495Z,410
2016-10-03T11:58:36.506Z,415
2016-10-03T11:59:35.914Z,400
2016-10-03T12:00:35.671Z,385
2016-10-03T12:01:36.308Z,375
2016-10-03T12:02:36.521Z,375
2016-10-03T12:03:36.016Z,360
2016-10-03T12:04:36.871Z,350
2016-10-03T12:05:36.375Z,340
2016-10-03T12:06:36.701Z,345
2016-10-03T12:07:36.204Z,340
2016-10-03T12:08:35.514Z,330
2016-10-03T12:09:36.780Z,305
2016-10-03T12:10:36.795Z,295
2016-10-03T12:11:36.952Z,275
2016-10-03T12:12:36.598Z,255
2016-10-03T12:13:36.254Z,260
2016-10-03T12:14:36.911Z,265
2016-10-03T12:15:36.620Z,275
2016-10-03T12:16:36.965Z,280
2016-10-03T12:17:36.763Z,285
2016-10-03T12:18:37.003Z,295
2016-10-03T12:19:37.012Z,305
2016-10-03T12:20:36.412Z,310
2016-10-03T12:21:36.782Z,310
2016-10-03T12:22:37.214Z,310
2016-10-03T12:23:37.121Z,310
2016-10-03T12:24:37.131Z,325
2016-10-03T12:25:37.246Z,350
2016-10-03T12:26:36.864Z,370
2016-10-03T12:27:36.896Z,360
2016-10-03T12:28:36.355Z,315
2016-10-03T12:29:37.284Z,290
2016-10-03T12:30:36.862Z,320
2016-10-03T12:31:36.704Z,360
2016-10-03T12:32:37.253Z,375
2016-10-03T12:33:37.031Z,380
2016-10-03T12:34:37.063Z,390
2016-10-03T12:35:37.112Z,385
2016-10-03T12:36:37.113Z,365
2016-10-03T12:37:37.119Z,335
2016-10-03T12:38:37.285Z,320
2016-10-03T12:39:37.183Z,290
2016-10-03T12:40:37.342Z,280
2016-10-03T12:41:37.221Z,275
2016-10-03T12:42:37.562Z,265
2016-10-03T12:43:37.605Z,250
2016-10-03T12:44:37.598Z,235
2016-10-03T12:45:37.645Z,245
2016-10-03T12:46:37.403Z,245
2016-10-03T12:47:37.369Z,235
2016-10-03T12:48:37.094Z,250
2016-10-03T12:49:37.113Z,255
2016-10-03T12:50:37.251Z,250
2016-10-03T12:51:37.794Z,250
2016-10-03T12:52:37.823Z,260
2016-10-03T12:53:37.513Z,270
2016-10-03T12:54:37.854Z,285
2016-10-03T12:55:37.588Z,295
2016-10-03T12:56:37.592Z,305
2016-10-03T12:57:37.621Z,315
2016-10-03T12:58:37.333Z,315
2016-10-03T12:59:38.094Z,305
2016-10-03T13:00:37.411Z,295
2016-10-03T13:01:37.712Z,285
2016-10-03T13:02:38.034Z,275
2016-10-03T13:03:37.864Z,260
2016-10-03T13:04:37.780Z,275
2016-10-03T13:05:37.503Z,280
2016-10-03T13:06:38.143Z,265
2016-10-03T13:07:37.901Z,250
2016-10-03T13:08:37.903Z,230
2016-10-03T13:09:37.579Z,215
2016-10-03T13:10:38.260Z,205
2016-10-03T13:11:37.322Z,205
2016-10-03T13:12:37.732Z,205
2016-10-03T13:13:37.677Z,190
2016-10-03T13:14:38.183Z,195
2016-10-03T13:15:38.040Z,195
2016-10-03T13:16:38.106Z,200
2016-10-03T13:17:38.129Z,195
2016-10-03T13:18:38.305Z,205
2016-10-03T13:19:37.814Z,220
2016-10-03T13:20:38.175Z,235
2016-10-03T13:21:38.576Z,260
2016-10-03T13:22:38.206Z,270
2016-10-03T13:23:38.224Z,275
2016-10-03T13:24:38.945Z,285
2016-10-03T13:25:38.007Z,285
2016-10-03T13:26:38.615Z,280
2016-10-03T13:27:38.349Z,280
2016-10-03T13:28:38.549Z,280
2016-10-03T13:29:38.045Z,285
2016-10-03T13:30:38.403Z,285
2016-10-03T13:31:38.415Z,275
2016-10-03T13:32:37.796Z,270
2016-10-03T13:33:38.313Z,245
2016-10-03T13:34:38.785Z,250
2016-10-03T13:35:38.295Z,280
2016-10-03T13:36:37.987Z,290
2016-10-03T13:37:38.545Z,300
2016-10-03T13:38:38.914Z,295
2016-10-03T13:39:38.600Z,285
2016-10-03T13:40:38.512Z,295
2016-10-03T13:41:38.700Z,325
2016-10-03T13:42:39.100Z,370
2016-10-03T13:43:38.933Z,355
2016-10-03T13:44:38.709Z,330
2016-10-03T13:45:38.535Z,290
2016-10-03T13:46:39.127Z,290
2016-10-03T13:47:38.518Z,280
2016-10-03T13:48:39.124Z,265
2016-10-03T13:49:39.168Z,245
2016-10-03T13:50:38.787Z,240
2016-10-03T13:51:38.937Z,245
2016-10-03T13:52:38.921Z,255
2016-10-03T13:53:38.377Z,250
2016-10-03T13:54:38.639Z,245
2016-10-03T13:55:38.707Z,255
2016-10-03T13:56:39.017Z,260
2016-10-03T13:57:38.710Z,270
2016-10-03T13:58:39.169Z,285
2016-10-03T13:59:38.756Z,310
2016-10-03T14:00:39.440Z,325
2016-10-03T14:01:39.118Z,330
2016-10-03T14:02:39.159Z,350
2016-10-03T14:03:39.291Z,370
2016-10-03T14:04:39.260Z,360
2016-10-03T14:05:38.904Z,350
2016-10-03T14:06:39.544Z,315
2016-10-03T14:07:39.627Z,275
2016-10-03T14:08:39.035Z,255
2016-10-03T14:09:39.333Z,245
2016-10-03T14:10:39.112Z,245
2016-10-03T14:11:39.426Z,240
2016-10-03T14:12:39.389Z,240
2016-10-03T14:13:39.728Z,235
2016-10-03T14:14:39.169Z,240
2016-10-03T14:15:39.149Z,245